Time;durP1;ratioP1;P1;durP2;ratioP2;P2;SDS_P1;SDS_P2;PMS_P1;PMS_P2;Temp;Humidity;BMP_temperature;BMP_pressure;BME280_temperature;BME280_humidity;BME280_pressure;Samples;Min_cycle;Max_cycle;Signal;HPM_P1;HPM_P2
2023/08/08 00:01:27;;;;;;;;;1.25;1.25;;;;;;;;5057922;28;45291;-46
2023/08/08 00:03:52;;;;;;;;;4.75;2.75;;;;;;;;5058129;28;45319;-46
2023/08/08 00:06:18;;;;;;;;;2.75;2.75;;;;;;;;5058258;28;45334;-46
2023/08/08 00:08:43;;;;;;;;;6.00;3.00;;;;;;;;5057598;28;46138;-45
2023/08/08 00:11:08;;;;;;;;;5.00;3.00;;;;;;;;5057645;28;45327;-47
2023/08/08 00:13:33;;;;;;;;;3.00;2.00;;;;;;;;5057560;28;45363;-46
2023/08/08 00:15:58;;;;;;;;;2.50;1.00;;;;;;;;5057736;28;45437;-48
2023/08/08 00:18:24;;;;;;;;;1.00;1.00;;;;;;;;5039562;28;47132;-47
2023/08/08 00:20:49;;;;;;;;;6.75;3.00;;;;;;;;5057596;28;45509;-48
2023/08/08 00:23:14;;;;;;;;;1.75;1.00;;;;;;;;5057828;28;45213;-46
2023/08/08 00:25:39;;;;;;;;;2.50;2.25;;;;;;;;5057821;28;45170;-50
2023/08/08 00:28:05;;;;;;;;;2.50;2.50;;;;;;;;5057163;28;45773;-48
2023/08/08 00:30:30;;;;;;;;;2.50;2.00;;;;;;;;5057439;28;45357;-47
2023/08/08 00:32:55;;;;;;;;;3.00;3.00;;;;;;;;5057189;28;45310;-45
2023/08/08 00:35:21;;;;;;;;;3.25;3.00;;;;;;;;5057601;28;45283;-45
2023/08/08 00:37:46;;;;;;;;;3.00;3.00;;;;;;;;5057304;28;45569;-46
2023/08/08 00:40:12;;;;;;;;;5.75;3.00;;;;;;;;5057308;28;45462;-44
2023/08/08 00:42:37;;;;;;;;;3.00;3.00;;;;;;;;5057470;28;45380;-46
2023/08/08 00:45:03;;;;;;;;;5.00;3.50;;;;;;;;5057285;28;45281;-44
2023/08/08 00:47:30;;;;;;;;;3.00;3.00;;;;;;;;5057273;28;46246;-44
2023/08/08 00:49:56;;;;;;;;;2.40;2.40;;;;;;;;5057007;28;45311;-45
2023/08/08 00:52:21;;;;;;;;;4.00;2.25;;;;;;;;5057413;28;45537;-44
2023/08/08 00:54:46;;;;;;;;;3.00;3.00;;;;;;;;5055980;28;45478;-44
2023/08/08 00:57:12;;;;;;;;;3.50;2.50;;;;;;;;5056953;28;45374;-45
2023/08/08 00:59:37;;;;;;;;;1.25;1.25;;;;;;;;5057203;28;45216;-44
2023/08/08 01:02:02;;;;;;;;;5.00;1.50;;;;;;;;5056967;28;45501;-44
2023/08/08 01:04:27;;;;;;;;;3.25;3.25;;;;;;;;5057115;28;45282;-43
2023/08/08 01:07:11;;;;;;;;;3.25;3.25;;;;;;;;5057214;28;46110;-44
2023/08/08 01:09:41;;;;;;;;;5.40;3.00;;;;;;;;5060589;28;45354;-45
2023/08/08 01:12:08;;;;;;;;;1.80;1.80;;;;;;;;5060498;28;45379;-47
2023/08/08 01:14:34;;;;;;;;;2.50;2.50;;;;;;;;5060523;28;45485;-45
2023/08/08 01:17:00;;;;;;;;;6.00;3.25;;;;;;;;5060247;28;45784;-48
2023/08/08 01:19:27;;;;;;;;;2.25;2.25;;;;;;;;5060329;28;45393;-45
2023/08/08 01:21:53;;;;;;;;;2.00;1.80;;;;;;;;5060395;28;45283;-47
2023/08/08 01:24:20;;;;;;;;;4.25;3.75;;;;;;;;5060502;28;45220;-44
2023/08/08 01:26:46;;;;;;;;;6.00;2.75;;;;;;;;5060223;28;45368;-46
2023/08/08 01:29:11;;;;;;;;;3.00;3.00;;;;;;;;5059999;28;45398;-50
2023/08/08 01:31:36;;;;;;;;;3.25;2.00;;;;;;;;5060322;28;45295;-46
2023/08/08 01:34:01;;;;;;;;;4.00;3.75;;;;;;;;5060270;28;45398;-47
2023/08/08 01:36:38;;;;;;;;;2.75;2.25;;;;;;;;5059983;28;46193;-45
2023/08/08 01:39:08;;;;;;;;;4.60;2.80;;;;;;;;5059952;28;45442;-46
2023/08/08 01:41:34;;;;;;;;;2.60;2.60;;;;;;;;5060235;28;45348;-45
2023/08/08 01:44:00;;;;;;;;;3.00;3.00;;;;;;;;5060249;28;45235;-48
2023/08/08 01:46:26;;;;;;;;;3.75;3.00;;;;;;;;5059706;28;46270;-44
2023/08/08 01:48:51;;;;;;;;;3.50;2.25;;;;;;;;5059740;28;45302;-45
2023/08/08 01:51:16;;;;;;;;;2.75;2.75;;;;;;;;5059914;28;45311;-47
2023/08/08 01:53:41;;;;;;;;;4.00;2.25;;;;;;;;5060247;28;45375;-46
2023/08/08 01:56:06;;;;;;;;;4.00;3.00;;;;;;;;5059512;28;46065;-45
2023/08/08 01:58:32;;;;;;;;;4.00;3.00;;;;;;;;5059713;28;45413;-45
2023/08/08 02:00:57;;;;;;;;;4.50;2.75;;;;;;;;5059844;28;45387;-45
2023/08/08 02:03:22;;;;;;;;;4.00;2.25;;;;;;;;5060034;28;45415;-46
2023/08/08 02:05:47;;;;;;;;;3.00;2.50;;;;;;;;5059724;28;45691;-43
2023/08/08 02:08:13;;;;;;;;;2.50;2.00;;;;;;;;5060096;28;45498;-44
2023/08/08 02:10:38;;;;;;;;;4.75;3.00;;;;;;;;5060347;28;45266;-44
2023/08/08 02:13:03;;;;;;;;;3.75;3.00;;;;;;;;5060206;28;45505;-46
2023/08/08 02:15:28;;;;;;;;;2.25;2.25;;;;;;;;5059481;28;46043;-44
2023/08/08 02:17:54;;;;;;;;;2.00;2.00;;;;;;;;5059680;28;45428;-48
2023/08/08 02:20:19;;;;;;;;;3.00;3.00;;;;;;;;5058980;28;45343;-46
2023/08/08 02:22:44;;;;;;;;;3.50;3.00;;;;;;;;5059937;28;45319;-46
2023/08/08 02:25:09;;;;;;;;;2.75;2.00;;;;;;;;5059336;28;46306;-47
2023/08/08 02:27:34;;;;;;;;;1.00;1.00;;;;;;;;5059405;28;45370;-46
2023/08/08 02:29:59;;;;;;;;;2.00;2.00;;;;;;;;5059839;28;45494;-43
2023/08/08 02:32:25;;;;;;;;;2.00;2.00;;;;;;;;5059414;28;45417;-43
2023/08/08 02:34:50;;;;;;;;;2.75;2.00;;;;;;;;5058995;28;45873;-44
2023/08/08 02:37:15;;;;;;;;;1.50;1.25;;;;;;;;5058944;28;45323;-45
2023/08/08 02:39:44;;;;;;;;;2.25;2.00;;;;;;;;5059197;28;45449;-49
2023/08/08 02:42:09;;;;;;;;;1.50;1.50;;;;;;;;5059470;28;45379;-45
2023/08/08 02:44:34;;;;;;;;;2.00;1.00;;;;;;;;5057321;28;46187;-47
2023/08/08 02:46:59;;;;;;;;;1.00;1.00;;;;;;;;5059231;28;45402;-45
2023/08/08 02:49:24;;;;;;;;;5.75;3.00;;;;;;;;5059169;28;45338;-45
2023/08/08 02:51:50;;;;;;;;;5.00;1.75;;;;;;;;5059220;28;45414;-45
2023/08/08 02:54:15;;;;;;;;;2.00;1.25;;;;;;;;5058857;28;45366;-46
2023/08/08 02:56:40;;;;;;;;;6.50;3.00;;;;;;;;5058709;28;45506;-42
2023/08/08 02:59:05;;;;;;;;;6.00;2.00;;;;;;;;5059156;28;45315;-45
2023/08/08 03:01:31;;;;;;;;;1.75;1.75;;;;;;;;5058975;28;45283;-45
2023/08/08 03:03:56;;;;;;;;;2.50;1.00;;;;;;;;5058611;28;47270;-47
2023/08/08 03:06:21;;;;;;;;;3.75;2.00;;;;;;;;5058856;28;45200;-47
2023/08/08 03:08:46;;;;;;;;;0.50;0.50;;;;;;;;5058723;28;45265;-45
2023/08/08 03:11:12;;;;;;;;;2.00;2.00;;;;;;;;5058913;28;45466;-46
2023/08/08 03:13:37;;;;;;;;;4.00;2.00;;;;;;;;5058560;28;45209;-51
2023/08/08 03:16:02;;;;;;;;;4.25;1.50;;;;;;;;5058287;28;45405;-46
2023/08/08 03:18:28;;;;;;;;;2.75;2.50;;;;;;;;5058638;28;45444;-50
2023/08/08 03:20:53;;;;;;;;;2.25;1.75;;;;;;;;5058671;28;45398;-47
2023/08/08 03:23:18;;;;;;;;;2.00;2.00;;;;;;;;5058474;28;46059;-45
2023/08/08 03:25:43;;;;;;;;;6.00;3.00;;;;;;;;5058456;28;45443;-44
2023/08/08 03:28:09;;;;;;;;;3.00;2.25;;;;;;;;5058644;28;45436;-44
2023/08/08 03:30:36;;;;;;;;;3.50;2.75;;;;;;;;5058430;28;45298;-43
2023/08/08 03:33:01;;;;;;;;;4.00;2.75;;;;;;;;5058056;28;47118;-46
2023/08/08 03:35:27;;;;;;;;;2.00;2.00;;;;;;;;5058392;28;45448;-45
2023/08/08 03:37:52;;;;;;;;;2.00;2.00;;;;;;;;5058218;28;45344;-44
2023/08/08 03:40:17;;;;;;;;;1.00;1.00;;;;;;;;5058499;28;45296;-46
2023/08/08 03:42:42;;;;;;;;;2.50;1.25;;;;;;;;5058003;28;46004;-46
2023/08/08 03:45:08;;;;;;;;;2.00;2.00;;;;;;;;5057962;28;45517;-46
2023/08/08 03:47:33;;;;;;;;;2.00;2.00;;;;;;;;5058203;28;45362;-44
2023/08/08 03:49:58;;;;;;;;;1.50;1.00;;;;;;;;5058200;28;45443;-44
2023/08/08 03:52:24;;;;;;;;;3.00;3.00;;;;;;;;5057962;28;46024;-44
2023/08/08 03:54:49;;;;;;;;;2.25;2.00;;;;;;;;5057864;28;45413;-44
2023/08/08 03:57:14;;;;;;;;;3.00;3.00;;;;;;;;5057851;28;45466;-44
2023/08/08 03:59:39;;;;;;;;;2.00;2.00;;;;;;;;5058242;28;45327;-45
2023/08/08 04:02:05;;;;;;;;;2.25;2.25;;;;;;;;5057478;28;45369;-43
2023/08/08 04:04:30;;;;;;;;;7.75;2.00;;;;;;;;5057850;28;45415;-44
2023/08/08 04:06:55;;;;;;;;;3.00;2.00;;;;;;;;5057785;28;45199;-43
2023/08/08 04:09:20;;;;;;;;;4.00;2.50;;;;;;;;5058025;28;45304;-44
2023/08/08 04:11:46;;;;;;;;;4.00;2.00;;;;;;;;5057672;28;45247;-45
2023/08/08 04:14:11;;;;;;;;;2.75;2.75;;;;;;;;5057344;28;45519;-44
2023/08/08 04:16:36;;;;;;;;;3.00;2.00;;;;;;;;5057462;28;45292;-46
2023/08/08 04:19:03;;;;;;;;;1.75;1.75;;;;;;;;5057812;28;45585;-45
2023/08/08 04:21:28;;;;;;;;;3.25;1.00;;;;;;;;5056098;28;46066;-44
2023/08/08 04:23:54;;;;;;;;;4.00;3.00;;;;;;;;5057255;28;45343;-45
2023/08/08 04:26:19;;;;;;;;;3.00;3.00;;;;;;;;5057598;28;45391;-45
2023/08/08 04:28:44;;;;;;;;;2.00;2.00;;;;;;;;5057729;28;45240;-44
2023/08/08 04:31:09;;;;;;;;;6.75;2.25;;;;;;;;5057018;28;45684;-45
2023/08/08 04:33:34;;;;;;;;;2.75;2.75;;;;;;;;5057073;28;45465;-44
2023/08/08 04:35:59;;;;;;;;;3.00;1.00;;;;;;;;5057194;28;45430;-45
2023/08/08 04:38:25;;;;;;;;;1.75;1.75;;;;;;;;5057389;28;45413;-46
2023/08/08 04:40:50;;;;;;;;;2.00;2.00;;;;;;;;5057344;28;45434;-44
2023/08/08 04:43:15;;;;;;;;;1.00;1.00;;;;;;;;5056277;28;45398;-43
2023/08/08 04:45:40;;;;;;;;;3.00;1.50;;;;;;;;5057183;28;45442;-44
2023/08/08 04:48:06;;;;;;;;;1.25;1.25;;;;;;;;5057384;28;45308;-45
2023/08/08 04:50:31;;;;;;;;;2.75;2.00;;;;;;;;5056932;28;45869;-45
2023/08/08 04:52:56;;;;;;;;;4.00;3.00;;;;;;;;5057183;28;45390;-44
2023/08/08 04:55:21;;;;;;;;;1.00;1.00;;;;;;;;5057187;28;45389;-46
2023/08/08 04:57:46;;;;;;;;;2.50;2.00;;;;;;;;5057061;28;45378;-46
2023/08/08 05:00:13;;;;;;;;;7.75;2.00;;;;;;;;5056948;28;46054;-45
2023/08/08 05:02:39;;;;;;;;;4.40;3.20;;;;;;;;5057157;28;45851;-45
2023/08/08 05:05:04;;;;;;;;;1.75;1.25;;;;;;;;5057063;28;45283;-46
2023/08/08 05:07:30;;;;;;;;;3.00;3.00;;;;;;;;5057214;28;45439;-43
2023/08/08 05:09:55;;;;;;;;;1.75;1.75;;;;;;;;5056705;28;46227;-45
2023/08/08 05:12:20;;;;;;;;;2.00;2.00;;;;;;;;5056828;28;45262;-46
2023/08/08 05:14:45;;;;;;;;;2.25;2.25;;;;;;;;5056988;28;45374;-44
2023/08/08 05:17:10;;;;;;;;;7.00;3.25;;;;;;;;5056699;28;45231;-45
2023/08/08 05:19:36;;;;;;;;;3.00;1.50;;;;;;;;5056800;28;46109;-46
2023/08/08 05:22:01;;;;;;;;;4.00;3.50;;;;;;;;5056950;28;45234;-43
2023/08/08 05:24:26;;;;;;;;;2.25;2.25;;;;;;;;5057041;28;45208;-45
2023/08/08 05:26:53;;;;;;;;;1.75;1.75;;;;;;;;5057092;28;45366;-44
2023/08/08 05:29:18;;;;;;;;;3.75;3.25;;;;;;;;5056516;28;45504;-44
2023/08/08 05:31:43;;;;;;;;;3.50;2.00;;;;;;;;5056274;28;45511;-46
2023/08/08 05:34:08;;;;;;;;;5.00;3.00;;;;;;;;5056438;28;45430;-45
2023/08/08 05:36:33;;;;;;;;;5.00;3.00;;;;;;;;5056717;28;45438;-44
2023/08/08 05:38:59;;;;;;;;;3.25;2.00;;;;;;;;5056676;28;45504;-44
2023/08/08 05:41:24;;;;;;;;;3.00;3.00;;;;;;;;5056593;28;45491;-45
2023/08/08 05:43:49;;;;;;;;;4.25;2.00;;;;;;;;5056554;28;45443;-45
2023/08/08 05:46:14;;;;;;;;;3.00;3.00;;;;;;;;5056646;28;45418;-44
2023/08/08 05:48:39;;;;;;;;;4.50;3.00;;;;;;;;5056436;28;47116;-44
2023/08/08 05:51:05;;;;;;;;;2.00;2.00;;;;;;;;5048951;28;45482;-46
2023/08/08 05:53:31;;;;;;;;;2.75;2.75;;;;;;;;5036826;28;45359;-47
2023/08/08 05:55:56;;;;;;;;;4.75;2.00;;;;;;;;5049618;28;45491;-45
2023/08/08 05:58:22;;;;;;;;;1.00;1.00;;;;;;;;5046202;28;45579;-45
2023/08/08 06:00:47;;;;;;;;;3.00;3.00;;;;;;;;5047434;28;45424;-44
2023/08/08 06:03:12;;;;;;;;;3.00;3.00;;;;;;;;5050609;28;45312;-45
2023/08/08 06:05:38;;;;;;;;;4.00;3.00;;;;;;;;5056637;28;45465;-47
2023/08/08 06:08:06;;;;;;;;;3.50;3.00;;;;;;;;5045879;28;45367;-43
2023/08/08 06:10:31;;;;;;;;;3.00;2.20;;;;;;;;5059731;28;45240;-45
2023/08/08 06:12:57;;;;;;;;;7.00;4.75;;;;;;;;5054530;28;45223;-46
2023/08/08 06:15:22;;;;;;;;;2.25;2.00;;;;;;;;5048558;28;45699;-51
2023/08/08 06:17:48;;;;;;;;;3.00;3.00;;;;;;;;5048976;28;45394;-50
2023/08/08 06:20:13;;;;;;;;;4.00;2.50;;;;;;;;5039026;28;45619;-50
2023/08/08 06:22:38;;;;;;;;;2.25;2.25;;;;;;;;5038190;28;45366;-51
2023/08/08 06:25:04;;;;;;;;;4.00;3.50;;;;;;;;5054290;28;45445;-46
2023/08/08 06:27:30;;;;;;;;;4.25;2.50;;;;;;;;5058975;28;46327;-50
2023/08/08 06:29:56;;;;;;;;;2.25;2.25;;;;;;;;5046812;28;45423;-46
2023/08/08 06:32:21;;;;;;;;;5.50;3.00;;;;;;;;5038985;28;45551;-48
2023/08/08 06:34:46;;;;;;;;;5.50;4.50;;;;;;;;5039016;28;45362;-46
2023/08/08 06:37:11;;;;;;;;;3.75;3.00;;;;;;;;5038608;28;46816;-45
2023/08/08 06:39:38;;;;;;;;;3.00;3.00;;;;;;;;5038522;28;45303;-44
2023/08/08 06:42:03;;;;;;;;;4.20;3.40;;;;;;;;5039090;28;45338;-46
2023/08/08 06:44:29;;;;;;;;;3.00;3.00;;;;;;;;5038902;28;45340;-47
2023/08/08 06:46:54;;;;;;;;;2.00;2.00;;;;;;;;5037333;28;47235;-46
2023/08/08 06:49:19;;;;;;;;;2.00;2.00;;;;;;;;5038555;28;45454;-45
2023/08/08 06:51:44;;;;;;;;;2.50;2.50;;;;;;;;5038651;28;45288;-44
2023/08/08 06:54:09;;;;;;;;;2.50;2.00;;;;;;;;5039101;28;45316;-45
2023/08/08 06:56:35;;;;;;;;;2.50;1.00;;;;;;;;5038144;28;46176;-42
2023/08/08 06:59:00;;;;;;;;;1.75;1.50;;;;;;;;5038572;28;45197;-45
2023/08/08 07:01:25;;;;;;;;;1.00;1.00;;;;;;;;5038814;28;45447;-44
2023/08/08 07:03:50;;;;;;;;;2.00;2.00;;;;;;;;5038371;28;45587;-44
2023/08/08 07:06:18;;;;;;;;;2.50;1.50;;;;;;;;5037870;28;47036;-45
2023/08/08 07:08:44;;;;;;;;;3.00;3.00;;;;;;;;5038157;28;45374;-44
2023/08/08 07:11:09;;;;;;;;;2.00;2.00;;;;;;;;5038317;28;45399;-45
2023/08/08 07:13:34;;;;;;;;;2.00;2.00;;;;;;;;5038283;28;45538;-45
2023/08/08 07:15:59;;;;;;;;;2.75;2.00;;;;;;;;5037850;28;46360;-42
2023/08/08 07:18:25;;;;;;;;;2.00;1.00;;;;;;;;5038012;28;45395;-45
2023/08/08 07:20:50;;;;;;;;;1.00;1.00;;;;;;;;5038305;28;45578;-52
2023/08/08 07:23:18;;;;;;;;;1.75;1.75;;;;;;;;5037240;28;45465;-46
2023/08/08 07:25:43;;;;;;;;;2.00;2.00;;;;;;;;5037910;28;45371;-46
2023/08/08 07:28:08;;;;;;;;;2.50;1.00;;;;;;;;5037979;28;45411;-44
2023/08/08 07:30:34;;;;;;;;;3.00;2.00;;;;;;;;5038284;28;45348;-46
2023/08/08 07:32:59;;;;;;;;;2.00;2.00;;;;;;;;5038227;28;45226;-46
2023/08/08 07:35:25;;;;;;;;;1.00;1.00;;;;;;;;5037952;28;46112;-43
2023/08/08 07:37:50;;;;;;;;;0.75;0.75;;;;;;;;5037655;28;45303;-51
2023/08/08 07:40:17;;;;;;;;;3.00;1.00;;;;;;;;5038038;28;45301;-47
2023/08/08 07:42:43;;;;;;;;;3.20;2.20;;;;;;;;5038005;28;45320;-43
2023/08/08 07:45:08;;;;;;;;;1.00;1.00;;;;;;;;5037675;28;45395;-47
2023/08/08 07:47:34;;;;;;;;;1.40;1.40;;;;;;;;5037462;28;45418;-44
2023/08/08 07:50:00;;;;;;;;;1.00;1.00;;;;;;;;5036466;28;45308;-43
2023/08/08 07:52:25;;;;;;;;;2.20;1.00;;;;;;;;5037758;28;45323;-47
2023/08/08 07:54:50;;;;;;;;;3.00;1.00;;;;;;;;5037573;28;45406;-46
2023/08/08 07:57:15;;;;;;;;;4.25;1.25;;;;;;;;5037336;28;45415;-46
2023/08/08 07:59:41;;;;;;;;;2.00;2.00;;;;;;;;5037717;28;45342;-45
2023/08/08 08:02:07;;;;;;;;;2.50;1.00;;;;;;;;5037518;28;45449;-45
2023/08/08 08:04:32;;;;;;;;;2.80;2.00;;;;;;;;5037358;28;46083;-46
2023/08/08 08:06:58;;;;;;;;;2.50;0.75;;;;;;;;5037383;28;45362;-43
2023/08/08 08:09:23;;;;;;;;;3.00;1.50;;;;;;;;5037464;28;45310;-43
2023/08/08 08:11:48;;;;;;;;;4.50;2.25;;;;;;;;5037618;28;45315;-54
2023/08/08 08:14:13;;;;;;;;;1.00;1.00;;;;;;;;5036873;28;46293;-55
2023/08/08 08:16:38;;;;;;;;;1.00;1.00;;;;;;;;5042748;28;45317;-53
2023/08/08 08:19:04;;;;;;;;;1.25;1.00;;;;;;;;5056395;28;45533;-55
2023/08/08 08:21:29;;;;;;;;;1.75;1.50;;;;;;;;5054645;28;45433;-54
2023/08/08 08:23:54;;;;;;;;;1.75;1.75;;;;;;;;5053660;28;45528;-54
2023/08/08 08:26:20;;;;;;;;;0.00;0.00;;;;;;;;5054089;28;45504;-54
2023/08/08 08:28:45;;;;;;;;;2.25;0.50;;;;;;;;5054122;28;45548;-54
2023/08/08 08:31:10;;;;;;;;;0.75;0.75;;;;;;;;5054473;28;45426;-53
2023/08/08 08:33:35;;;;;;;;;1.75;1.75;;;;;;;;5053498;28;45457;-54
2023/08/08 08:36:02;;;;;;;;;2.00;0.40;;;;;;;;5053863;28;45363;-52
2023/08/08 08:38:27;;;;;;;;;0.75;0.75;;;;;;;;5054045;28;45418;-51
2023/08/08 08:40:53;;;;;;;;;1.00;1.00;;;;;;;;5054411;28;45410;-51
2023/08/08 08:43:19;;;;;;;;;1.40;1.00;;;;;;;;5053929;28;47082;-48
2023/08/08 08:45:47;;;;;;;;;3.00;1.00;;;;;;;;5052505;28;45462;-54
2023/08/08 08:48:14;;;;;;;;;1.00;1.00;;;;;;;;5053774;28;45339;-52
2023/08/08 08:50:39;;;;;;;;;0.00;0.00;;;;;;;;5053917;28;45407;-55
2023/08/08 08:53:05;;;;;;;;;1.75;1.75;;;;;;;;5053459;28;45530;-55
2023/08/08 08:55:30;;;;;;;;;0.00;0.00;;;;;;;;5053633;28;45685;-54
2023/08/08 08:57:55;;;;;;;;;0.00;0.00;;;;;;;;5053387;28;45406;-54
2023/08/08 09:00:20;;;;;;;;;0.00;0.00;;;;;;;;5053834;28;45415;-55
2023/08/08 09:02:46;;;;;;;;;0.75;0.00;;;;;;;;5053371;28;46299;-54
2023/08/08 09:05:11;;;;;;;;;3.75;1.00;;;;;;;;5052257;28;45560;-55
2023/08/08 09:07:37;;;;;;;;;1.00;1.00;;;;;;;;5053624;28;45482;-55
2023/08/08 09:10:03;;;;;;;;;1.00;1.00;;;;;;;;5053388;28;45532;-55
2023/08/08 09:12:29;;;;;;;;;1.00;0.00;;;;;;;;5055802;28;46259;-53
2023/08/08 09:14:57;;;;;;;;;2.00;1.00;;;;;;;;5055425;28;45352;-55
2023/08/08 09:17:24;;;;;;;;;1.20;0.60;;;;;;;;5056805;28;45394;-56
2023/08/08 09:19:50;;;;;;;;;0.00;0.00;;;;;;;;5056930;28;45282;-56
2023/08/08 09:22:15;;;;;;;;;4.25;2.00;;;;;;;;5056545;28;45204;-55
2023/08/08 09:24:41;;;;;;;;;1.00;1.00;;;;;;;;5056856;28;45350;-54
2023/08/08 09:27:07;;;;;;;;;0.00;0.00;;;;;;;;5056717;28;45427;-55
2023/08/08 09:29:32;;;;;;;;;0.00;0.00;;;;;;;;5059365;28;45362;-56
2023/08/08 09:31:58;;;;;;;;;1.00;1.00;;;;;;;;5060061;28;46845;-55
2023/08/08 09:34:26;;;;;;;;;1.00;1.00;;;;;;;;5059771;28;45212;-54
2023/08/08 09:36:51;;;;;;;;;1.40;1.40;;;;;;;;5060390;28;45666;-52
2023/08/08 09:39:17;;;;;;;;;0.50;0.50;;;;;;;;5060433;28;45370;-54
2023/08/08 09:41:45;;;;;;;;;0.00;0.00;;;;;;;;5060025;28;45396;-56
2023/08/08 09:44:10;;;;;;;;;0.40;0.40;;;;;;;;5060206;28;45288;-56
2023/08/08 09:46:35;;;;;;;;;1.25;0.00;;;;;;;;5060084;28;45397;-52
2023/08/08 09:49:01;;;;;;;;;0.75;0.75;;;;;;;;5060119;28;45223;-56
2023/08/08 09:51:27;;;;;;;;;1.75;0.00;;;;;;;;5059860;28;45285;-56
2023/08/08 09:53:53;;;;;;;;;0.00;0.00;;;;;;;;5059665;28;45216;-51
2023/08/08 09:56:18;;;;;;;;;1.40;0.20;;;;;;;;5060001;28;45220;-54
2023/08/08 09:58:45;;;;;;;;;1.60;0.80;;;;;;;;5060015;28;45440;-56
2023/08/08 10:01:12;;;;;;;;;1.50;1.50;;;;;;;;5059661;28;45457;-57
2023/08/08 10:03:37;;;;;;;;;0.50;0.00;;;;;;;;5059248;28;45425;-55
2023/08/08 10:06:03;;;;;;;;;1.00;1.00;;;;;;;;5059894;28;45319;-55
2023/08/08 10:08:29;;;;;;;;;1.00;1.00;;;;;;;;5059909;28;45403;-54
2023/08/08 10:10:55;;;;;;;;;1.20;1.20;;;;;;;;5059470;28;45245;-56
2023/08/08 10:13:25;;;;;;;;;1.00;0.75;;;;;;;;5059699;28;45212;-53
2023/08/08 10:15:51;;;;;;;;;0.40;0.40;;;;;;;;5059494;28;45383;-52
2023/08/08 10:18:17;;;;;;;;;1.25;0.25;;;;;;;;5058268;28;45584;-56
2023/08/08 10:20:43;;;;;;;;;1.25;1.25;;;;;;;;5059208;28;46979;-54
2023/08/08 10:23:08;;;;;;;;;1.00;1.00;;;;;;;;5059418;27;45469;-54
2023/08/08 10:25:34;;;;;;;;;2.00;0.00;;;;;;;;5059348;28;45328;-57
2023/08/08 10:28:03;;;;;;;;;0.00;0.00;;;;;;;;5059761;28;45379;-56
2023/08/08 10:30:29;;;;;;;;;3.00;1.50;;;;;;;;5059138;28;46580;-54
2023/08/08 10:32:56;;;;;;;;;2.00;1.67;;;;;;;;5059360;28;45442;-52
2023/08/08 10:35:24;;;;;;;;;0.00;0.00;;;;;;;;5059293;28;45434;-57
2023/08/08 10:37:56;;;;;;;;;1.75;0.75;;;;;;;;5059478;28;45280;-56
2023/08/08 10:40:21;;;;;;;;;1.00;1.00;;;;;;;;5058178;28;46320;-52
2023/08/08 10:42:47;;;;;;;;;0.00;0.00;;;;;;;;5059048;28;45444;-56
2023/08/08 10:45:15;;;;;;;;;0.67;0.67;;;;;;;;5059182;28;45450;-55
2023/08/08 10:47:41;;;;;;;;;1.00;0.40;;;;;;;;5059274;28;45180;-46
2023/08/08 10:50:13;;;;;;;;;2.00;2.00;;;;;;;;5058564;28;46800;-54
2023/08/08 10:52:54;;;;;;;;;1.80;1.00;;;;;;;;5058890;28;45472;-48
2023/08/08 10:55:19;;;;;;;;;1.00;1.00;;;;;;;;5059019;28;45520;-50
2023/08/08 10:57:52;;;;;;;;;1.00;1.00;;;;;;;;5059197;28;45324;-55
2023/08/08 11:00:18;;;;;;;;;0.80;0.80;;;;;;;;5058559;28;45320;-55
2023/08/08 11:02:44;;;;;;;;;0.50;0.50;;;;;;;;5058507;28;45459;-53
2023/08/08 11:05:09;;;;;;;;;1.00;1.00;;;;;;;;5058805;28;45482;-55
2023/08/08 11:07:37;;;;;;;;;3.25;1.50;;;;;;;;5058916;28;45232;-53
2023/08/08 11:10:02;;;;;;;;;1.00;1.00;;;;;;;;5058541;28;45506;-55
2023/08/08 11:12:27;;;;;;;;;1.00;1.00;;;;;;;;5058438;28;45343;-51
2023/08/08 11:14:52;;;;;;;;;4.75;1.50;;;;;;;;5058680;28;45323;-52
2023/08/08 11:17:18;;;;;;;;;1.00;1.00;;;;;;;;5058619;28;45310;-50
2023/08/08 11:19:43;;;;;;;;;3.00;1.00;;;;;;;;5058231;28;46066;-49
2023/08/08 11:22:09;;;;;;;;;4.50;3.00;;;;;;;;5058322;28;45517;-47
2023/08/08 11:24:35;;;;;;;;;2.50;0.25;;;;;;;;5058370;28;45366;-48
2023/08/08 11:27:00;;;;;;;;;1.40;1.40;;;;;;;;5058538;28;45548;-49
2023/08/08 11:29:30;;;;;;;;;0.50;0.50;;;;;;;;5058283;28;46029;-48
2023/08/08 11:31:55;;;;;;;;;1.20;1.20;;;;;;;;5058199;28;45306;-49
2023/08/08 11:34:21;;;;;;;;;4.80;2.40;;;;;;;;5057931;28;45443;-47
2023/08/08 11:36:47;;;;;;;;;0.50;0.50;;;;;;;;5058204;28;45474;-47
2023/08/08 11:39:12;;;;;;;;;0.75;0.75;;;;;;;;5058168;28;45267;-46
2023/08/08 11:41:39;;;;;;;;;1.00;1.00;;;;;;;;5058170;28;45363;-49
2023/08/08 11:44:04;;;;;;;;;3.80;0.80;;;;;;;;5058104;28;45502;-47
2023/08/08 11:46:30;;;;;;;;;3.00;3.00;;;;;;;;5058201;28;45349;-47
2023/08/08 11:49:01;;;;;;;;;4.00;2.00;;;;;;;;5057750;28;45592;-47
2023/08/08 11:51:27;;;;;;;;;2.00;2.00;;;;;;;;5057066;28;45546;-47
2023/08/08 11:53:53;;;;;;;;;1.40;1.40;;;;;;;;5056507;28;45316;-46
2023/08/08 11:56:21;;;;;;;;;2.00;2.00;;;;;;;;5058043;28;45436;-46
2023/08/08 11:58:48;;;;;;;;;1.60;1.60;;;;;;;;5057772;28;45338;-47
2023/08/08 12:01:14;;;;;;;;;2.00;2.00;;;;;;;;5057427;28;45268;-47
2023/08/08 12:03:39;;;;;;;;;3.00;1.00;;;;;;;;5057980;28;45379;-46
2023/08/08 12:06:12;;;;;;;;;2.00;1.75;;;;;;;;5057940;28;45630;-48
2023/08/08 12:08:37;;;;;;;;;0.80;0.80;;;;;;;;5057621;28;46005;-46
2023/08/08 12:11:04;;;;;;;;;3.25;1.00;;;;;;;;5057582;28;45644;-46
2023/08/08 12:13:30;;;;;;;;;2.80;2.20;;;;;;;;5057841;28;45201;-46
2023/08/08 12:15:58;;;;;;;;;3.00;2.00;;;;;;;;5057869;28;45438;-46
2023/08/08 12:18:23;;;;;;;;;1.40;1.40;;;;;;;;5057456;28;47053;-47
2023/08/08 12:20:49;;;;;;;;;3.00;3.00;;;;;;;;5057350;28;45327;-46
2023/08/08 12:23:14;;;;;;;;;4.00;3.00;;;;;;;;5057599;28;45429;-49
2023/08/08 12:25:39;;;;;;;;;7.25;7.25;;;;;;;;5055543;28;45481;-47
2023/08/08 12:28:05;;;;;;;;;2.75;2.75;;;;;;;;5056890;28;47041;-49
2023/08/08 12:30:30;;;;;;;;;3.00;3.00;;;;;;;;5056171;28;45334;-48
2023/08/08 12:32:56;;;;;;;;;8.00;3.00;;;;;;;;5054602;28;45344;-47
2023/08/08 12:35:21;;;;;;;;;2.50;2.50;;;;;;;;5054347;28;45418;-48
2023/08/08 12:37:47;;;;;;;;;2.00;2.00;;;;;;;;5053903;28;47415;-47
2023/08/08 12:40:12;;;;;;;;;5.75;2.75;;;;;;;;5053933;28;45497;-48
2023/08/08 12:42:37;;;;;;;;;2.25;2.00;;;;;;;;5054353;28;45445;-47
2023/08/08 12:45:03;;;;;;;;;3.00;3.00;;;;;;;;5054623;28;45341;-48
2023/08/08 12:47:29;;;;;;;;;3.00;1.50;;;;;;;;5052400;28;48880;-48
2023/08/08 12:49:54;;;;;;;;;3.00;1.20;;;;;;;;5053611;28;45499;-48
2023/08/08 12:52:19;;;;;;;;;1.00;1.00;;;;;;;;5054107;28;45480;-48
2023/08/08 12:54:45;;;;;;;;;2.00;1.00;;;;;;;;5054127;28;45612;-46
2023/08/08 12:57:10;;;;;;;;;1.75;1.75;;;;;;;;5053812;28;46113;-48
2023/08/08 12:59:35;;;;;;;;;2.00;2.00;;;;;;;;5053921;28;45626;-48
2023/08/08 13:02:00;;;;;;;;;2.25;0.50;;;;;;;;5053799;28;45473;-47
2023/08/08 13:04:25;;;;;;;;;1.25;1.25;;;;;;;;5056591;28;45912;-45
2023/08/08 13:06:51;;;;;;;;;1.25;0.50;;;;;;;;5057376;28;45410;-47
2023/08/08 13:09:16;;;;;;;;;2.25;2.25;;;;;;;;5057270;28;45430;-46
2023/08/08 13:11:41;;;;;;;;;2.00;2.00;;;;;;;;5057142;28;45544;-48
2023/08/08 13:14:06;;;;;;;;;0.00;0.00;;;;;;;;5057483;28;46543;-50
2023/08/08 13:16:32;;;;;;;;;0.75;0.75;;;;;;;;5057417;28;46133;-47
2023/08/08 13:18:57;;;;;;;;;3.00;2.00;;;;;;;;5057422;28;45707;-48
2023/08/08 13:21:22;;;;;;;;;4.25;3.00;;;;;;;;5057101;28;45552;-50
2023/08/08 13:23:48;;;;;;;;;3.50;2.25;;;;;;;;5057168;28;45311;-49
2023/08/08 13:26:13;;;;;;;;;3.50;2.75;;;;;;;;5057050;28;47010;-49
2023/08/08 13:28:39;;;;;;;;;2.50;0.75;;;;;;;;5057010;28;46474;-49
2023/08/08 13:31:06;;;;;;;;;1.25;1.25;;;;;;;;5057190;28;45478;-51
2023/08/08 13:33:31;;;;;;;;;1.60;1.60;;;;;;;;5056511;28;45767;-47
2023/08/08 13:35:56;;;;;;;;;1.00;1.00;;;;;;;;5056838;28;45796;-48
2023/08/08 13:38:23;;;;;;;;;2.75;2.00;;;;;;;;5056736;28;45607;-50
2023/08/08 13:40:48;;;;;;;;;2.00;0.60;;;;;;;;5056913;28;45450;-48
2023/08/08 13:43:14;;;;;;;;;2.00;2.00;;;;;;;;5056901;28;45386;-49
2023/08/08 13:45:39;;;;;;;;;1.25;1.25;;;;;;;;5056473;28;45363;-49
2023/08/08 13:48:05;;;;;;;;;1.00;1.00;;;;;;;;5056891;28;46620;-49
2023/08/08 13:50:30;;;;;;;;;3.80;2.00;;;;;;;;5056809;28;45964;-49
2023/08/08 13:52:55;;;;;;;;;1.75;1.75;;;;;;;;5057421;28;46023;-50
2023/08/08 13:55:21;;;;;;;;;0.25;0.25;;;;;;;;5056471;28;46396;-49
2023/08/08 13:57:46;;;;;;;;;2.00;1.00;;;;;;;;5056527;28;46135;-51
2023/08/08 14:00:12;;;;;;;;;1.50;1.50;;;;;;;;5056587;28;45780;-51
2023/08/08 14:02:38;;;;;;;;;1.00;1.00;;;;;;;;5055760;28;45514;-50
2023/08/08 14:05:06;;;;;;;;;1.25;1.00;;;;;;;;5056526;28;45488;-48
2023/08/08 14:07:31;;;;;;;;;1.00;1.00;;;;;;;;5056265;28;45454;-47
2023/08/08 14:09:56;;;;;;;;;3.50;1.00;;;;;;;;5056628;28;45452;-50
2023/08/08 14:12:21;;;;;;;;;1.25;1.25;;;;;;;;5056720;28;45422;-51
2023/08/08 14:14:47;;;;;;;;;0.50;0.50;;;;;;;;5055465;28;45513;-51
2023/08/08 14:17:12;;;;;;;;;1.00;1.00;;;;;;;;5055876;28;45429;-48
2023/08/08 14:19:37;;;;;;;;;2.00;1.25;;;;;;;;5055375;28;45546;-52
2023/08/08 14:22:02;;;;;;;;;1.00;1.00;;;;;;;;5056663;28;45468;-48
2023/08/08 14:24:27;;;;;;;;;2.00;1.00;;;;;;;;5055923;28;45504;-51
2023/08/08 14:26:53;;;;;;;;;1.50;0.25;;;;;;;;5056248;28;45551;-47
2023/08/08 14:29:18;;;;;;;;;2.50;1.00;;;;;;;;5056114;28;45673;-51
2023/08/08 14:31:43;;;;;;;;;2.75;1.00;;;;;;;;5056338;28;45484;-51
2023/08/08 14:34:08;;;;;;;;;1.25;1.00;;;;;;;;5054245;28;46073;-49